sensor_id;sensor_type;location;lat;lon;timestamp;P1;durP1;ratioP1;P2;durP2;ratioP2
47764;SDS011;33529;49.242;8.670;2022-08-11T00:01:56;3.78;;;2.03;;
47764;SDS011;33529;49.242;8.670;2022-08-11T00:04:25;4.15;;;2.40;;
47764;SDS011;33529;49.242;8.670;2022-08-11T00:07:03;3.88;;;2.30;;
47764;SDS011;33529;49.242;8.670;2022-08-11T00:09:35;4.00;;;2.00;;
47764;SDS011;33529;49.242;8.670;2022-08-11T00:12:11;5.80;;;2.45;;
47764;SDS011;33529;49.242;8.670;2022-08-11T00:14:43;5.15;;;2.55;;
47764;SDS011;33529;49.242;8.670;2022-08-11T00:17:12;4.90;;;2.05;;
47764;SDS011;33529;49.242;8.670;2022-08-11T00:19:42;4.28;;;2.10;;
47764;SDS011;33529;49.242;8.670;2022-08-11T00:22:31;4.07;;;1.83;;
47764;SDS011;33529;49.242;8.670;2022-08-11T00:25:01;4.78;;;2.40;;
47764;SDS011;33529;49.242;8.670;2022-08-11T00:27:44;2.88;;;2.05;;
47764;SDS011;33529;49.242;8.670;2022-08-11T00:30:14;3.97;;;2.28;;
47764;SDS011;33529;49.242;8.670;2022-08-11T00:32:42;3.95;;;2.10;;
47764;SDS011;33529;49.242;8.670;2022-08-11T00:35:13;4.82;;;2.08;;
47764;SDS011;33529;49.242;8.670;2022-08-11T00:38:02;3.97;;;2.33;;
47764;SDS011;33529;49.242;8.670;2022-08-11T00:40:36;3.70;;;2.10;;
47764;SDS011;33529;49.242;8.670;2022-08-11T00:52:26;4.38;;;2.30;;
47764;SDS011;33529;49.242;8.670;2022-08-11T00:54:59;4.38;;;2.40;;
47764;SDS011;33529;49.242;8.670;2022-08-11T00:57:35;3.38;;;2.17;;
47764;SDS011;33529;49.242;8.670;2022-08-11T01:00:15;3.80;;;2.15;;
47764;SDS011;33529;49.242;8.670;2022-08-11T01:29:16;3.38;;;2.20;;
47764;SDS011;33529;49.242;8.670;2022-08-11T01:32:48;4.07;;;2.15;;
47764;SDS011;33529;49.242;8.670;2022-08-11T01:35:46;3.23;;;2.37;;
47764;SDS011;33529;49.242;8.670;2022-08-11T01:38:56;5.20;;;2.50;;
47764;SDS011;33529;49.242;8.670;2022-08-11T01:41:56;4.65;;;2.42;;
47764;SDS011;33529;49.242;8.670;2022-08-11T01:44:52;3.55;;;2.08;;
47764;SDS011;33529;49.242;8.670;2022-08-11T01:48:15;4.20;;;2.35;;
47764;SDS011;33529;49.242;8.670;2022-08-11T01:55:52;3.10;;;2.30;;
47764;SDS011;33529;49.242;8.670;2022-08-11T02:01:40;7.60;;;2.50;;
47764;SDS011;33529;49.242;8.670;2022-08-11T02:10:14;5.82;;;2.70;;
47764;SDS011;33529;49.242;8.670;2022-08-11T02:22:07;5.85;;;2.47;;
47764;SDS011;33529;49.242;8.670;2022-08-11T02:25:06;4.15;;;2.58;;
47764;SDS011;33529;49.242;8.670;2022-08-11T02:27:58;3.97;;;2.72;;
47764;SDS011;33529;49.242;8.670;2022-08-11T02:31:36;5.33;;;2.53;;
47764;SDS011;33529;49.242;8.670;2022-08-11T02:37:00;4.15;;;2.17;;
47764;SDS011;33529;49.242;8.670;2022-08-11T02:39:59;3.58;;;2.40;;
47764;SDS011;33529;49.242;8.670;2022-08-11T02:42:54;6.45;;;3.00;;
47764;SDS011;33529;49.242;8.670;2022-08-11T02:57:29;3.92;;;2.50;;
47764;SDS011;33529;49.242;8.670;2022-08-11T03:02:39;3.53;;;2.40;;
47764;SDS011;33529;49.242;8.670;2022-08-11T03:14:05;4.80;;;2.47;;
47764;SDS011;33529;49.242;8.670;2022-08-11T03:17:05;3.83;;;2.72;;
47764;SDS011;33529;49.242;8.670;2022-08-11T03:19:41;5.35;;;2.72;;
47764;SDS011;33529;49.242;8.670;2022-08-11T03:25:00;3.25;;;2.50;;
47764;SDS011;33529;49.242;8.670;2022-08-11T03:27:56;3.90;;;2.58;;
47764;SDS011;33529;49.242;8.670;2022-08-11T03:34:18;4.75;;;2.70;;
47764;SDS011;33529;49.242;8.670;2022-08-11T03:39:46;3.70;;;2.50;;
47764;SDS011;33529;49.242;8.670;2022-08-11T03:42:47;4.97;;;2.83;;
47764;SDS011;33529;49.242;8.670;2022-08-11T03:45:36;4.28;;;2.53;;
47764;SDS011;33529;49.242;8.670;2022-08-11T03:48:37;6.78;;;4.32;;
47764;SDS011;33529;49.242;8.670;2022-08-11T03:51:30;4.65;;;3.03;;
47764;SDS011;33529;49.242;8.670;2022-08-11T04:00:12;3.63;;;2.70;;
47764;SDS011;33529;49.242;8.670;2022-08-11T04:06:02;5.30;;;2.92;;
47764;SDS011;33529;49.242;8.670;2022-08-11T04:11:53;6.35;;;3.22;;
47764;SDS011;33529;49.242;8.670;2022-08-11T04:24:03;5.00;;;2.50;;
47764;SDS011;33529;49.242;8.670;2022-08-11T04:29:19;5.60;;;2.97;;
47764;SDS011;33529;49.242;8.670;2022-08-11T04:35:22;4.82;;;2.70;;
47764;SDS011;33529;49.242;8.670;2022-08-11T04:47:47;4.90;;;2.55;;
47764;SDS011;33529;49.242;8.670;2022-08-11T04:51:17;4.88;;;3.03;;
47764;SDS011;33529;49.242;8.670;2022-08-11T04:54:25;3.78;;;2.38;;
47764;SDS011;33529;49.242;8.670;2022-08-11T04:57:46;3.58;;;2.30;;
47764;SDS011;33529;49.242;8.670;2022-08-11T05:01:05;3.90;;;2.75;;
47764;SDS011;33529;49.242;8.670;2022-08-11T05:15:15;4.90;;;3.40;;
47764;SDS011;33529;49.242;8.670;2022-08-11T05:18:15;4.88;;;2.75;;
47764;SDS011;33529;49.242;8.670;2022-08-11T05:21:06;7.60;;;2.58;;
47764;SDS011;33529;49.242;8.670;2022-08-11T05:24:02;4.50;;;2.40;;
47764;SDS011;33529;49.242;8.670;2022-08-11T05:26:51;5.03;;;2.70;;
47764;SDS011;33529;49.242;8.670;2022-08-11T05:29:45;4.85;;;2.92;;
47764;SDS011;33529;49.242;8.670;2022-08-11T05:32:37;3.42;;;2.47;;
47764;SDS011;33529;49.242;8.670;2022-08-11T05:38:24;4.65;;;3.08;;
47764;SDS011;33529;49.242;8.670;2022-08-11T05:41:12;4.97;;;2.88;;
47764;SDS011;33529;49.242;8.670;2022-08-11T05:43:58;5.03;;;2.97;;
47764;SDS011;33529;49.242;8.670;2022-08-11T05:46:48;5.25;;;2.70;;
47764;SDS011;33529;49.242;8.670;2022-08-11T05:49:34;5.97;;;2.55;;
47764;SDS011;33529;49.242;8.670;2022-08-11T05:52:24;5.78;;;2.80;;
47764;SDS011;33529;49.242;8.670;2022-08-11T05:55:20;3.92;;;3.05;;
47764;SDS011;33529;49.242;8.670;2022-08-11T05:58:34;3.95;;;2.53;;
47764;SDS011;33529;49.242;8.670;2022-08-11T06:01:08;3.20;;;2.33;;
47764;SDS011;33529;49.242;8.670;2022-08-11T06:03:42;4.10;;;2.65;;
47764;SDS011;33529;49.242;8.670;2022-08-11T06:06:29;6.07;;;2.53;;
47764;SDS011;33529;49.242;8.670;2022-08-11T06:08:56;4.85;;;2.88;;
47764;SDS011;33529;49.242;8.670;2022-08-11T06:11:25;4.15;;;2.70;;
47764;SDS011;33529;49.242;8.670;2022-08-11T06:14:10;4.07;;;2.80;;
47764;SDS011;33529;49.242;8.670;2022-08-11T06:16:39;3.60;;;2.72;;
47764;SDS011;33529;49.242;8.670;2022-08-11T06:19:08;4.68;;;2.80;;
47764;SDS011;33529;49.242;8.670;2022-08-11T06:21:35;5.40;;;2.70;;
47764;SDS011;33529;49.242;8.670;2022-08-11T06:24:04;4.78;;;2.65;;
47764;SDS011;33529;49.242;8.670;2022-08-11T06:26:37;5.38;;;2.95;;
47764;SDS011;33529;49.242;8.670;2022-08-11T06:29:26;5.35;;;2.40;;
47764;SDS011;33529;49.242;8.670;2022-08-11T06:32:13;4.22;;;2.85;;
47764;SDS011;33529;49.242;8.670;2022-08-11T06:40:10;4.55;;;3.10;;
47764;SDS011;33529;49.242;8.670;2022-08-11T06:48:21;4.15;;;3.25;;
47764;SDS011;33529;49.242;8.670;2022-08-11T06:50:50;5.22;;;2.95;;
47764;SDS011;33529;49.242;8.670;2022-08-11T06:53:50;5.13;;;2.65;;
47764;SDS011;33529;49.242;8.670;2022-08-11T06:56:34;4.00;;;2.67;;
47764;SDS011;33529;49.242;8.670;2022-08-11T06:59:42;3.55;;;2.80;;
47764;SDS011;33529;49.242;8.670;2022-08-11T07:02:30;4.20;;;2.45;;
47764;SDS011;33529;49.242;8.670;2022-08-11T07:11:39;4.22;;;3.10;;
47764;SDS011;33529;49.242;8.670;2022-08-11T07:17:33;5.82;;;3.00;;
47764;SDS011;33529;49.242;8.670;2022-08-11T07:20:08;5.80;;;2.83;;
47764;SDS011;33529;49.242;8.670;2022-08-11T07:22:55;4.75;;;2.97;;
47764;SDS011;33529;49.242;8.670;2022-08-11T07:25:43;6.75;;;3.00;;
47764;SDS011;33529;49.242;8.670;2022-08-11T07:28:33;3.40;;;2.50;;
47764;SDS011;33529;49.242;8.670;2022-08-11T07:31:33;4.22;;;2.88;;
47764;SDS011;33529;49.242;8.670;2022-08-11T07:36:46;3.70;;;2.75;;
47764;SDS011;33529;49.242;8.670;2022-08-11T07:39:18;4.22;;;2.80;;
47764;SDS011;33529;49.242;8.670;2022-08-11T07:42:07;4.78;;;2.65;;
47764;SDS011;33529;49.242;8.670;2022-08-11T07:44:35;4.93;;;2.65;;
47764;SDS011;33529;49.242;8.670;2022-08-11T07:47:26;5.70;;;2.83;;
47764;SDS011;33529;49.242;8.670;2022-08-11T07:50:12;4.80;;;2.78;;
47764;SDS011;33529;49.242;8.670;2022-08-11T07:52:59;5.38;;;2.70;;
47764;SDS011;33529;49.242;8.670;2022-08-11T07:55:29;4.65;;;2.65;;
47764;SDS011;33529;49.242;8.670;2022-08-11T07:58:17;3.60;;;2.60;;
47764;SDS011;33529;49.242;8.670;2022-08-11T08:01:11;5.65;;;3.10;;
47764;SDS011;33529;49.242;8.670;2022-08-11T08:04:04;4.95;;;2.70;;
47764;SDS011;33529;49.242;8.670;2022-08-11T08:06:51;7.32;;;2.80;;
47764;SDS011;33529;49.242;8.670;2022-08-11T08:09:37;4.78;;;3.28;;
47764;SDS011;33529;49.242;8.670;2022-08-11T08:12:24;5.00;;;2.78;;
47764;SDS011;33529;49.242;8.670;2022-08-11T08:15:11;6.80;;;3.22;;
47764;SDS011;33529;49.242;8.670;2022-08-11T08:17:59;4.78;;;2.60;;
47764;SDS011;33529;49.242;8.670;2022-08-11T08:20:48;4.00;;;2.35;;
47764;SDS011;33529;49.242;8.670;2022-08-11T08:23:19;3.45;;;2.63;;
47764;SDS011;33529;49.242;8.670;2022-08-11T08:26:01;5.57;;;3.10;;
47764;SDS011;33529;49.242;8.670;2022-08-11T08:28:29;4.20;;;2.80;;
47764;SDS011;33529;49.242;8.670;2022-08-11T08:30:58;3.97;;;2.55;;
47764;SDS011;33529;49.242;8.670;2022-08-11T08:33:29;6.03;;;2.80;;
47764;SDS011;33529;49.242;8.670;2022-08-11T08:41:12;4.80;;;2.92;;
47764;SDS011;33529;49.242;8.670;2022-08-11T08:43:44;4.78;;;2.85;;
47764;SDS011;33529;49.242;8.670;2022-08-11T08:46:18;8.35;;;3.25;;
47764;SDS011;33529;49.242;8.670;2022-08-11T08:48:49;4.32;;;2.50;;
47764;SDS011;33529;49.242;8.670;2022-08-11T08:51:18;5.28;;;2.95;;
47764;SDS011;33529;49.242;8.670;2022-08-11T08:54:22;5.80;;;2.70;;
47764;SDS011;33529;49.242;8.670;2022-08-11T08:56:55;14.40;;;3.10;;
47764;SDS011;33529;49.242;8.670;2022-08-11T08:59:23;6.03;;;3.28;;
47764;SDS011;33529;49.242;8.670;2022-08-11T09:02:14;7.53;;;2.83;;
47764;SDS011;33529;49.242;8.670;2022-08-11T09:04:43;5.18;;;2.70;;
47764;SDS011;33529;49.242;8.670;2022-08-11T09:07:13;4.47;;;2.70;;
47764;SDS011;33529;49.242;8.670;2022-08-11T09:09:42;4.60;;;2.78;;
47764;SDS011;33529;49.242;8.670;2022-08-11T09:12:20;4.10;;;2.38;;
47764;SDS011;33529;49.242;8.670;2022-08-11T09:15:04;4.05;;;2.63;;
47764;SDS011;33529;49.242;8.670;2022-08-11T09:17:34;4.25;;;2.60;;
47764;SDS011;33529;49.242;8.670;2022-08-11T09:20:14;5.72;;;3.00;;
47764;SDS011;33529;49.242;8.670;2022-08-11T09:22:55;4.38;;;2.67;;
47764;SDS011;33529;49.242;8.670;2022-08-11T09:26:02;5.68;;;2.70;;
47764;SDS011;33529;49.242;8.670;2022-08-11T09:28:56;6.03;;;2.67;;
47764;SDS011;33529;49.242;8.670;2022-08-11T09:31:24;4.90;;;2.40;;
47764;SDS011;33529;49.242;8.670;2022-08-11T09:33:53;4.50;;;2.58;;
47764;SDS011;33529;49.242;8.670;2022-08-11T09:36:20;4.82;;;2.50;;
47764;SDS011;33529;49.242;8.670;2022-08-11T09:39:06;5.15;;;2.55;;
47764;SDS011;33529;49.242;8.670;2022-08-11T09:41:56;4.57;;;2.58;;
47764;SDS011;33529;49.242;8.670;2022-08-11T09:44:29;3.53;;;2.20;;
47764;SDS011;33529;49.242;8.670;2022-08-11T09:47:16;5.15;;;2.72;;
47764;SDS011;33529;49.242;8.670;2022-08-11T09:49:52;4.85;;;2.30;;
47764;SDS011;33529;49.242;8.670;2022-08-11T09:52:26;4.95;;;2.70;;
47764;SDS011;33529;49.242;8.670;2022-08-11T09:54:54;3.50;;;2.40;;
47764;SDS011;33529;49.242;8.670;2022-08-11T09:57:22;4.50;;;2.53;;
47764;SDS011;33529;49.242;8.670;2022-08-11T10:00:09;4.55;;;2.10;;
47764;SDS011;33529;49.242;8.670;2022-08-11T10:05:10;3.07;;;2.23;;
47764;SDS011;33529;49.242;8.670;2022-08-11T10:08:02;5.18;;;2.33;;
47764;SDS011;33529;49.242;8.670;2022-08-11T10:10:33;3.90;;;2.38;;
47764;SDS011;33529;49.242;8.670;2022-08-11T10:13:02;3.42;;;2.28;;
47764;SDS011;33529;49.242;8.670;2022-08-11T10:15:54;2.97;;;2.08;;
47764;SDS011;33529;49.242;8.670;2022-08-11T10:18:41;4.90;;;2.20;;
47764;SDS011;33529;49.242;8.670;2022-08-11T10:21:29;7.20;;;2.42;;
47764;SDS011;33529;49.242;8.670;2022-08-11T10:24:03;4.55;;;1.98;;
47764;SDS011;33529;49.242;8.670;2022-08-11T10:26:52;3.85;;;2.00;;
47764;SDS011;33529;49.242;8.670;2022-08-11T10:29:21;7.95;;;2.28;;
47764;SDS011;33529;49.242;8.670;2022-08-11T10:32:19;4.55;;;2.25;;
47764;SDS011;33529;49.242;8.670;2022-08-11T10:35:25;4.90;;;2.42;;
47764;SDS011;33529;49.242;8.670;2022-08-11T10:37:57;6.55;;;2.30;;
47764;SDS011;33529;49.242;8.670;2022-08-11T10:40:44;5.22;;;2.20;;
47764;SDS011;33529;49.242;8.670;2022-08-11T10:43:32;6.82;;;2.17;;
47764;SDS011;33529;49.242;8.670;2022-08-11T10:46:20;3.72;;;2.22;;
47764;SDS011;33529;49.242;8.670;2022-08-11T10:49:06;5.25;;;1.80;;
47764;SDS011;33529;49.242;8.670;2022-08-11T10:51:34;3.92;;;1.90;;
47764;SDS011;33529;49.242;8.670;2022-08-11T10:54:24;6.32;;;2.42;;
47764;SDS011;33529;49.242;8.670;2022-08-11T10:57:10;3.95;;;2.08;;
47764;SDS011;33529;49.242;8.670;2022-08-11T10:59:58;3.58;;;2.05;;
47764;SDS011;33529;49.242;8.670;2022-08-11T11:02:26;4.63;;;1.85;;
47764;SDS011;33529;49.242;8.670;2022-08-11T11:10:57;2.55;;;1.70;;
47764;SDS011;33529;49.242;8.670;2022-08-11T11:13:26;4.15;;;1.88;;
47764;SDS011;33529;49.242;8.670;2022-08-11T11:16:21;3.03;;;1.67;;
47764;SDS011;33529;49.242;8.670;2022-08-11T11:19:09;4.07;;;2.13;;
47764;SDS011;33529;49.242;8.670;2022-08-11T11:21:38;4.00;;;1.80;;
47764;SDS011;33529;49.242;8.670;2022-08-11T11:37:49;4.35;;;1.73;;
47764;SDS011;33529;49.242;8.670;2022-08-11T11:40:30;5.68;;;1.90;;
47764;SDS011;33529;49.242;8.670;2022-08-11T11:42:58;3.72;;;1.70;;
47764;SDS011;33529;49.242;8.670;2022-08-11T11:45:26;4.80;;;1.95;;
47764;SDS011;33529;49.242;8.670;2022-08-11T11:47:54;3.03;;;1.50;;
47764;SDS011;33529;49.242;8.670;2022-08-11T11:50:25;4.55;;;1.55;;
47764;SDS011;33529;49.242;8.670;2022-08-11T11:53:00;3.80;;;2.00;;
47764;SDS011;33529;49.242;8.670;2022-08-11T11:55:30;4.25;;;1.65;;
47764;SDS011;33529;49.242;8.670;2022-08-11T11:58:01;3.60;;;2.00;;
47764;SDS011;33529;49.242;8.670;2022-08-11T12:00:48;3.58;;;1.90;;
47764;SDS011;33529;49.242;8.670;2022-08-11T12:03:35;3.13;;;1.67;;
47764;SDS011;33529;49.242;8.670;2022-08-11T12:06:04;4.43;;;1.77;;
47764;SDS011;33529;49.242;8.670;2022-08-11T12:08:33;4.38;;;1.90;;
47764;SDS011;33529;49.242;8.670;2022-08-11T12:11:02;3.10;;;1.77;;
47764;SDS011;33529;49.242;8.670;2022-08-11T12:13:53;6.35;;;1.92;;
47764;SDS011;33529;49.242;8.670;2022-08-11T12:16:23;3.22;;;1.80;;
47764;SDS011;33529;49.242;8.670;2022-08-11T12:19:02;4.18;;;1.70;;
47764;SDS011;33529;49.242;8.670;2022-08-11T12:21:32;3.20;;;1.60;;
47764;SDS011;33529;49.242;8.670;2022-08-11T12:24:01;4.18;;;1.73;;
47764;SDS011;33529;49.242;8.670;2022-08-11T12:26:54;3.33;;;1.88;;
47764;SDS011;33529;49.242;8.670;2022-08-11T12:29:44;3.58;;;2.05;;
47764;SDS011;33529;49.242;8.670;2022-08-11T12:32:30;6.68;;;1.83;;
47764;SDS011;33529;49.242;8.670;2022-08-11T12:34:59;3.42;;;1.40;;
47764;SDS011;33529;49.242;8.670;2022-08-11T12:37:30;4.00;;;1.63;;
47764;SDS011;33529;49.242;8.670;2022-08-11T12:40:02;2.25;;;1.40;;
47764;SDS011;33529;49.242;8.670;2022-08-11T12:43:17;3.28;;;2.10;;
47764;SDS011;33529;49.242;8.670;2022-08-11T12:46:06;4.50;;;1.65;;
47764;SDS011;33529;49.242;8.670;2022-08-11T12:48:45;3.45;;;1.70;;
47764;SDS011;33529;49.242;8.670;2022-08-11T12:51:34;2.83;;;1.77;;
47764;SDS011;33529;49.242;8.670;2022-08-11T13:00:21;4.70;;;1.80;;
47764;SDS011;33529;49.242;8.670;2022-08-11T13:03:08;2.80;;;1.63;;
47764;SDS011;33529;49.242;8.670;2022-08-11T13:05:56;4.47;;;1.40;;
47764;SDS011;33529;49.242;8.670;2022-08-11T13:08:26;3.70;;;1.90;;
47764;SDS011;33529;49.242;8.670;2022-08-11T13:10:56;3.28;;;1.63;;
47764;SDS011;33529;49.242;8.670;2022-08-11T13:13:44;3.90;;;1.70;;
47764;SDS011;33529;49.242;8.670;2022-08-11T13:16:31;3.92;;;1.63;;
47764;SDS011;33529;49.242;8.670;2022-08-11T13:19:22;4.25;;;1.67;;
47764;SDS011;33529;49.242;8.670;2022-08-11T13:21:50;3.10;;;1.70;;
47764;SDS011;33529;49.242;8.670;2022-08-11T13:24:18;6.13;;;2.05;;
47764;SDS011;33529;49.242;8.670;2022-08-11T13:26:46;3.70;;;1.90;;
47764;SDS011;33529;49.242;8.670;2022-08-11T13:29:19;4.65;;;2.25;;
47764;SDS011;33529;49.242;8.670;2022-08-11T13:31:48;4.20;;;2.10;;
47764;SDS011;33529;49.242;8.670;2022-08-11T13:34:16;4.90;;;1.92;;
47764;SDS011;33529;49.242;8.670;2022-08-11T13:36:46;4.95;;;1.90;;
47764;SDS011;33529;49.242;8.670;2022-08-11T13:39:22;3.83;;;1.90;;
47764;SDS011;33529;49.242;8.670;2022-08-11T13:41:53;5.10;;;1.90;;
47764;SDS011;33529;49.242;8.670;2022-08-11T13:44:22;2.45;;;1.42;;
47764;SDS011;33529;49.242;8.670;2022-08-11T13:46:59;7.10;;;2.00;;
47764;SDS011;33529;49.242;8.670;2022-08-11T13:49:30;3.85;;;1.55;;
47764;SDS011;33529;49.242;8.670;2022-08-11T13:51:58;4.55;;;1.90;;
47764;SDS011;33529;49.242;8.670;2022-08-11T13:54:27;3.63;;;1.70;;
47764;SDS011;33529;49.242;8.670;2022-08-11T13:56:59;3.72;;;1.98;;
47764;SDS011;33529;49.242;8.670;2022-08-11T13:59:34;3.78;;;2.10;;
47764;SDS011;33529;49.242;8.670;2022-08-11T14:02:17;3.80;;;2.17;;
47764;SDS011;33529;49.242;8.670;2022-08-11T14:05:00;4.13;;;1.70;;
47764;SDS011;33529;49.242;8.670;2022-08-11T14:07:41;3.42;;;1.50;;
47764;SDS011;33529;49.242;8.670;2022-08-11T14:10:15;2.58;;;1.70;;
47764;SDS011;33529;49.242;8.670;2022-08-11T14:12:49;2.50;;;1.55;;
47764;SDS011;33529;49.242;8.670;2022-08-11T14:15:44;2.78;;;1.92;;
47764;SDS011;33529;49.242;8.670;2022-08-11T14:20:46;3.53;;;1.65;;
47764;SDS011;33529;49.242;8.670;2022-08-11T14:23:43;4.00;;;1.80;;
47764;SDS011;33529;49.242;8.670;2022-08-11T14:26:16;2.88;;;1.80;;
47764;SDS011;33529;49.242;8.670;2022-08-11T14:29:00;4.03;;;2.10;;
47764;SDS011;33529;49.242;8.670;2022-08-11T14:31:41;2.28;;;1.50;;
47764;SDS011;33529;49.242;8.670;2022-08-11T14:34:11;3.90;;;1.70;;
47764;SDS011;33529;49.242;8.670;2022-08-11T14:36:43;3.15;;;1.85;;
47764;SDS011;33529;49.242;8.670;2022-08-11T14:39:13;3.92;;;1.77;;
47764;SDS011;33529;49.242;8.670;2022-08-11T14:41:47;4.00;;;1.70;;
47764;SDS011;33529;49.242;8.670;2022-08-11T14:44:39;2.72;;;1.75;;
47764;SDS011;33529;49.242;8.670;2022-08-11T14:47:32;3.13;;;1.48;;
47764;SDS011;33529;49.242;8.670;2022-08-11T14:50:01;3.22;;;1.73;;
47764;SDS011;33529;49.242;8.670;2022-08-11T14:53:11;3.50;;;2.03;;
47764;SDS011;33529;49.242;8.670;2022-08-11T14:55:36;3.78;;;1.48;;
47764;SDS011;33529;49.242;8.670;2022-08-11T14:58:25;2.85;;;1.70;;
47764;SDS011;33529;49.242;8.670;2022-08-11T15:00:55;3.50;;;1.30;;
47764;SDS011;33529;49.242;8.670;2022-08-11T15:03:24;2.83;;;1.73;;
47764;SDS011;33529;49.242;8.670;2022-08-11T15:05:55;2.90;;;1.80;;
47764;SDS011;33529;49.242;8.670;2022-08-11T15:08:33;5.05;;;2.30;;
47764;SDS011;33529;49.242;8.670;2022-08-11T15:11:22;2.40;;;1.50;;
47764;SDS011;33529;49.242;8.670;2022-08-11T15:16:40;2.63;;;1.60;;
47764;SDS011;33529;49.242;8.670;2022-08-11T15:19:28;3.40;;;1.75;;
47764;SDS011;33529;49.242;8.670;2022-08-11T15:22:06;2.90;;;1.60;;
47764;SDS011;33529;49.242;8.670;2022-08-11T15:24:55;2.72;;;1.67;;
47764;SDS011;33529;49.242;8.670;2022-08-11T15:27:23;3.25;;;1.55;;
47764;SDS011;33529;49.242;8.670;2022-08-11T15:30:10;3.88;;;1.60;;
47764;SDS011;33529;49.242;8.670;2022-08-11T15:32:59;3.35;;;1.60;;
47764;SDS011;33529;49.242;8.670;2022-08-11T15:35:53;3.50;;;1.55;;
47764;SDS011;33529;49.242;8.670;2022-08-11T15:38:48;4.43;;;1.60;;
47764;SDS011;33529;49.242;8.670;2022-08-11T15:41:21;4.38;;;1.58;;
47764;SDS011;33529;49.242;8.670;2022-08-11T15:44:21;3.83;;;1.70;;
47764;SDS011;33529;49.242;8.670;2022-08-11T15:47:31;8.07;;;1.67;;
47764;SDS011;33529;49.242;8.670;2022-08-11T15:50:07;4.07;;;1.75;;
47764;SDS011;33529;49.242;8.670;2022-08-11T15:52:48;2.83;;;1.42;;
47764;SDS011;33529;49.242;8.670;2022-08-11T15:55:21;3.53;;;1.45;;
47764;SDS011;33529;49.242;8.670;2022-08-11T15:57:50;4.82;;;1.40;;
47764;SDS011;33529;49.242;8.670;2022-08-11T16:00:39;4.05;;;1.45;;
47764;SDS011;33529;49.242;8.670;2022-08-11T16:03:38;2.67;;;1.50;;
47764;SDS011;33529;49.242;8.670;2022-08-11T16:06:38;2.80;;;1.48;;
47764;SDS011;33529;49.242;8.670;2022-08-11T16:09:35;4.00;;;1.90;;
47764;SDS011;33529;49.242;8.670;2022-08-11T16:12:30;2.70;;;1.45;;
47764;SDS011;33529;49.242;8.670;2022-08-11T16:15:02;3.28;;;1.70;;
47764;SDS011;33529;49.242;8.670;2022-08-11T16:17:52;3.67;;;1.92;;
47764;SDS011;33529;49.242;8.670;2022-08-11T16:20:23;2.80;;;1.65;;
47764;SDS011;33529;49.242;8.670;2022-08-11T16:22:53;3.40;;;1.85;;
47764;SDS011;33529;49.242;8.670;2022-08-11T16:25:28;2.28;;;1.52;;
47764;SDS011;33529;49.242;8.670;2022-08-11T16:28:18;2.00;;;1.70;;
47764;SDS011;33529;49.242;8.670;2022-08-11T16:30:47;4.18;;;1.50;;
47764;SDS011;33529;49.242;8.670;2022-08-11T16:33:14;4.72;;;1.83;;
47764;SDS011;33529;49.242;8.670;2022-08-11T16:36:02;3.95;;;1.85;;
47764;SDS011;33529;49.242;8.670;2022-08-11T16:38:49;2.80;;;1.55;;
47764;SDS011;33529;49.242;8.670;2022-08-11T16:41:17;5.43;;;1.80;;
47764;SDS011;33529;49.242;8.670;2022-08-11T16:44:07;4.63;;;1.58;;
47764;SDS011;33529;49.242;8.670;2022-08-11T16:47:03;2.53;;;1.50;;
47764;SDS011;33529;49.242;8.670;2022-08-11T16:49:35;2.67;;;1.65;;
47764;SDS011;33529;49.242;8.670;2022-08-11T16:52:18;2.85;;;1.38;;
47764;SDS011;33529;49.242;8.670;2022-08-11T16:54:47;2.70;;;1.48;;
47764;SDS011;33529;49.242;8.670;2022-08-11T16:57:14;4.07;;;2.00;;
47764;SDS011;33529;49.242;8.670;2022-08-11T17:00:05;4.03;;;1.70;;
47764;SDS011;33529;49.242;8.670;2022-08-11T17:02:41;3.72;;;1.58;;
47764;SDS011;33529;49.242;8.670;2022-08-11T17:05:31;4.88;;;2.20;;
47764;SDS011;33529;49.242;8.670;2022-08-11T17:08:22;4.33;;;2.30;;
47764;SDS011;33529;49.242;8.670;2022-08-11T17:11:24;2.53;;;1.65;;
47764;SDS011;33529;49.242;8.670;2022-08-11T17:14:14;3.17;;;1.50;;
47764;SDS011;33529;49.242;8.670;2022-08-11T17:17:01;2.67;;;2.00;;
47764;SDS011;33529;49.242;8.670;2022-08-11T17:19:33;4.72;;;1.92;;
47764;SDS011;33529;49.242;8.670;2022-08-11T17:22:27;3.35;;;2.22;;
47764;SDS011;33529;49.242;8.670;2022-08-11T17:25:14;3.25;;;1.83;;
47764;SDS011;33529;49.242;8.670;2022-08-11T17:27:42;4.05;;;1.60;;
47764;SDS011;33529;49.242;8.670;2022-08-11T17:30:11;3.75;;;1.65;;
47764;SDS011;33529;49.242;8.670;2022-08-11T17:32:40;4.40;;;2.28;;
47764;SDS011;33529;49.242;8.670;2022-08-11T17:38:06;5.82;;;2.55;;
47764;SDS011;33529;49.242;8.670;2022-08-11T17:40:40;5.63;;;2.47;;
47764;SDS011;33529;49.242;8.670;2022-08-11T17:43:44;4.88;;;1.95;;
47764;SDS011;33529;49.242;8.670;2022-08-11T17:46:30;3.38;;;1.83;;
47764;SDS011;33529;49.242;8.670;2022-08-11T17:49:16;3.15;;;1.80;;
47764;SDS011;33529;49.242;8.670;2022-08-11T17:51:46;3.72;;;1.75;;
47764;SDS011;33529;49.242;8.670;2022-08-11T17:54:33;2.85;;;1.60;;
47764;SDS011;33529;49.242;8.670;2022-08-11T17:57:20;3.60;;;2.20;;
47764;SDS011;33529;49.242;8.670;2022-08-11T18:00:13;4.45;;;1.80;;
47764;SDS011;33529;49.242;8.670;2022-08-11T18:02:43;4.53;;;1.70;;
47764;SDS011;33529;49.242;8.670;2022-08-11T18:05:31;3.53;;;1.93;;
47764;SDS011;33529;49.242;8.670;2022-08-11T18:08:02;3.05;;;1.70;;
47764;SDS011;33529;49.242;8.670;2022-08-11T18:10:51;4.78;;;2.35;;
47764;SDS011;33529;49.242;8.670;2022-08-11T18:13:58;4.03;;;1.98;;
47764;SDS011;33529;49.242;8.670;2022-08-11T18:16:50;4.32;;;2.03;;
47764;SDS011;33529;49.242;8.670;2022-08-11T18:19:36;3.15;;;1.85;;
47764;SDS011;33529;49.242;8.670;2022-08-11T18:22:22;3.30;;;1.90;;
47764;SDS011;33529;49.242;8.670;2022-08-11T18:25:12;4.18;;;2.10;;
47764;SDS011;33529;49.242;8.670;2022-08-11T18:28:00;3.50;;;2.08;;
47764;SDS011;33529;49.242;8.670;2022-08-11T18:30:53;4.93;;;2.22;;
47764;SDS011;33529;49.242;8.670;2022-08-11T18:33:43;4.75;;;1.67;;
47764;SDS011;33529;49.242;8.670;2022-08-11T18:36:37;5.57;;;2.22;;
47764;SDS011;33529;49.242;8.670;2022-08-11T18:42:21;3.80;;;2.25;;
47764;SDS011;33529;49.242;8.670;2022-08-11T18:45:09;6.70;;;2.17;;
47764;SDS011;33529;49.242;8.670;2022-08-11T18:48:11;5.10;;;2.35;;
47764;SDS011;33529;49.242;8.670;2022-08-11T18:51:01;4.17;;;2.10;;
47764;SDS011;33529;49.242;8.670;2022-08-11T18:53:57;3.55;;;2.22;;
47764;SDS011;33529;49.242;8.670;2022-08-11T18:56:45;3.20;;;1.83;;
47764;SDS011;33529;49.242;8.670;2022-08-11T18:59:34;5.38;;;2.28;;
47764;SDS011;33529;49.242;8.670;2022-08-11T19:02:23;3.53;;;2.28;;
47764;SDS011;33529;49.242;8.670;2022-08-11T19:05:15;5.13;;;2.17;;
47764;SDS011;33529;49.242;8.670;2022-08-11T19:08:22;4.45;;;1.92;;
47764;SDS011;33529;49.242;8.670;2022-08-11T19:14:08;4.18;;;2.20;;
47764;SDS011;33529;49.242;8.670;2022-08-11T19:16:57;6.40;;;2.65;;
47764;SDS011;33529;49.242;8.670;2022-08-11T19:20:05;4.53;;;3.15;;
47764;SDS011;33529;49.242;8.670;2022-08-11T19:22:55;4.65;;;2.40;;
47764;SDS011;33529;49.242;8.670;2022-08-11T19:25:44;6.53;;;2.85;;
47764;SDS011;33529;49.242;8.670;2022-08-11T19:28:32;4.82;;;2.60;;
47764;SDS011;33529;49.242;8.670;2022-08-11T19:31:19;7.10;;;3.13;;
47764;SDS011;33529;49.242;8.670;2022-08-11T19:34:11;3.88;;;2.47;;
47764;SDS011;33529;49.242;8.670;2022-08-11T19:36:59;3.97;;;2.40;;
47764;SDS011;33529;49.242;8.670;2022-08-11T19:39:54;4.13;;;2.40;;
47764;SDS011;33529;49.242;8.670;2022-08-11T19:42:43;3.78;;;2.65;;
47764;SDS011;33529;49.242;8.670;2022-08-11T19:45:50;5.65;;;2.40;;
47764;SDS011;33529;49.242;8.670;2022-08-11T19:48:39;4.68;;;2.47;;
47764;SDS011;33529;49.242;8.670;2022-08-11T19:51:25;5.30;;;2.42;;
47764;SDS011;33529;49.242;8.670;2022-08-11T19:54:19;2.55;;;1.80;;
47764;SDS011;33529;49.242;8.670;2022-08-11T19:57:08;4.45;;;2.38;;
47764;SDS011;33529;49.242;8.670;2022-08-11T19:59:54;4.03;;;2.22;;